createdAt,value
2019-03-02T00:02:26.436Z,5.90
2019-03-02T00:05:01.969Z,5.60
2019-03-02T00:07:34.666Z,5.20
2019-03-02T00:10:10.092Z,5.03
2019-03-02T00:12:42.482Z,5.57
2019-03-02T00:15:14.573Z,4.50
2019-03-02T00:17:50.662Z,5.27
2019-03-02T00:20:22.433Z,5.00
2019-03-02T00:22:56.297Z,4.90
2019-03-02T00:25:30.672Z,3.70
2019-03-02T00:28:01.445Z,4.70
2019-03-02T00:30:33.216Z,4.50
2019-03-02T00:33:06.530Z,4.53
2019-03-02T00:35:39.814Z,5.13
2019-03-02T00:38:13.336Z,4.70
2019-03-02T00:40:46.539Z,4.40
2019-03-02T00:43:23.750Z,4.10
2019-03-02T00:45:54.534Z,4.63
2019-03-02T00:48:30.209Z,4.10
2019-03-02T00:51:01.641Z,4.17
2019-03-02T00:53:37.298Z,4.13
2019-03-02T00:56:09.138Z,5.00
2019-03-02T00:58:44.249Z,5.43
2019-03-02T01:01:15.624Z,5.17
2019-03-02T01:03:50.354Z,5.67
2019-03-02T01:06:24.232Z,6.27
2019-03-02T01:08:56.498Z,5.83
2019-03-02T01:11:32.921Z,4.80
2019-03-02T01:14:03.699Z,5.33
2019-03-02T01:16:36.696Z,5.77
2019-03-02T01:19:07.921Z,5.93
2019-03-02T01:21:42.347Z,6.53
2019-03-02T01:24:13.995Z,6.17
2019-03-02T01:26:46.835Z,5.30
2019-03-02T01:29:20.658Z,5.90
2019-03-02T01:31:52.729Z,5.60
2019-03-02T01:34:26.020Z,6.73
2019-03-02T01:36:58.874Z,5.87
2019-03-02T01:39:31.815Z,5.27
2019-03-02T01:42:04.953Z,5.10
2019-03-02T01:44:36.666Z,4.80
2019-03-02T01:47:07.866Z,4.00
2019-03-02T01:49:40.716Z,4.00
2019-03-02T01:52:13.874Z,3.57
2019-03-02T01:54:46.816Z,3.77
2019-03-02T01:57:19.817Z,3.07
2019-03-02T01:59:52.799Z,2.20
2019-03-02T02:02:25.795Z,2.80
2019-03-02T02:04:58.823Z,1.93
2019-03-02T02:07:32.065Z,2.00
2019-03-02T02:10:07.189Z,1.53
2019-03-02T02:12:41.025Z,1.70
2019-03-02T02:15:15.528Z,2.60
2019-03-02T02:17:49.571Z,2.63
2019-03-02T02:20:25.526Z,2.23
2019-03-02T02:22:59.145Z,2.57
2019-03-02T02:25:32.578Z,2.70
2019-03-02T02:28:09.634Z,2.27
2019-03-02T02:30:41.161Z,2.20
2019-03-02T02:33:15.810Z,2.30
2019-03-02T02:35:47.007Z,2.30
2019-03-02T02:38:20.142Z,3.30
2019-03-02T02:40:54.117Z,2.90
2019-03-02T02:43:26.988Z,1.93
2019-03-02T02:46:00.725Z,2.43
2019-03-02T02:48:33.310Z,2.27
2019-03-02T02:51:09.886Z,3.07
2019-03-02T02:53:40.251Z,2.33
2019-03-02T02:56:14.357Z,3.17
2019-03-02T02:58:55.657Z,3.30
2019-03-02T03:01:23.098Z,2.70
2019-03-02T03:03:59.517Z,3.47
2019-03-02T03:06:32.583Z,3.20
2019-03-02T03:09:09.627Z,3.20
2019-03-02T03:11:44.278Z,4.60
2019-03-02T03:14:15.044Z,3.30
2019-03-02T03:16:49.439Z,4.10
2019-03-02T03:19:26.264Z,3.80
2019-03-02T03:21:57.432Z,3.67
2019-03-02T03:24:39.974Z,3.60
2019-03-02T03:27:08.958Z,3.17
2019-03-02T03:29:44.470Z,3.57
2019-03-02T03:32:14.968Z,3.80
2019-03-02T03:34:46.431Z,3.73
2019-03-02T03:37:17.645Z,3.97
2019-03-02T03:39:49.340Z,4.30
2019-03-02T03:42:24.362Z,3.70
2019-03-02T03:44:59.652Z,4.30
2019-03-02T03:47:28.378Z,2.90
2019-03-02T03:50:01.422Z,3.90
2019-03-02T03:52:35.332Z,4.20
2019-03-02T03:55:07.774Z,3.80
2019-03-02T03:57:40.379Z,3.93
2019-03-02T04:00:15.661Z,3.83
2019-03-02T04:02:49.437Z,4.27
2019-03-02T04:05:20.656Z,5.30
2019-03-02T04:07:54.741Z,4.40
2019-03-02T04:10:30.055Z,5.03
2019-03-02T04:13:04.975Z,5.30
2019-03-02T04:15:41.857Z,4.67
2019-03-02T04:18:50.264Z,4.10
2019-03-02T04:21:29.833Z,4.47
2019-03-02T04:24:03.146Z,5.10
2019-03-02T04:26:36.407Z,5.30
2019-03-02T04:29:09.902Z,6.23
2019-03-02T04:31:44.110Z,6.87
2019-03-02T04:34:20.258Z,6.37
2019-03-02T04:36:49.186Z,5.00
2019-03-02T04:39:21.665Z,4.40
2019-03-02T04:41:55.447Z,4.07
2019-03-02T04:44:29.659Z,3.77
2019-03-02T04:50:27.058Z,4.60
2019-03-02T04:53:01.675Z,3.80
2019-03-02T04:55:35.705Z,4.43
2019-03-02T04:58:12.010Z,3.90
2019-03-02T05:00:41.693Z,4.93
2019-03-02T05:03:13.836Z,4.10
2019-03-02T05:05:45.435Z,4.53
2019-03-02T05:08:17.670Z,4.10
2019-03-02T05:10:49.666Z,4.20
2019-03-02T05:13:24.771Z,3.70
2019-03-02T05:15:56.050Z,3.33
2019-03-02T05:18:28.812Z,3.87
2019-03-02T05:21:01.832Z,4.60
2019-03-02T05:23:34.750Z,6.43
2019-03-02T05:26:07.731Z,8.37
2019-03-02T05:28:43.028Z,6.27
2019-03-02T05:31:17.928Z,4.80
2019-03-02T05:33:51.538Z,5.20
2019-03-02T05:36:26.668Z,4.43
2019-03-02T05:38:56.049Z,4.20
2019-03-02T05:41:29.105Z,6.27
2019-03-02T05:44:01.894Z,4.43
2019-03-02T05:46:35.603Z,4.47
2019-03-02T05:49:08.031Z,5.80
2019-03-02T05:51:42.688Z,5.10
2019-03-02T05:54:20.477Z,5.53
2019-03-02T05:56:52.927Z,5.23
2019-03-02T05:59:27.656Z,6.33
2019-03-02T06:02:02.079Z,6.70
2019-03-02T06:04:35.347Z,6.77
2019-03-02T06:07:07.874Z,7.00
2019-03-02T06:09:52.595Z,10.53
2019-03-02T06:12:29.687Z,9.00
2019-03-02T06:15:04.017Z,8.77
2019-03-02T06:17:37.616Z,8.67
2019-03-02T06:20:11.625Z,9.70
2019-03-02T06:22:43.878Z,9.70
2019-03-02T06:25:20.719Z,10.30
2019-03-02T06:27:50.116Z,10.63
2019-03-02T06:30:23.167Z,9.90
2019-03-02T06:32:56.207Z,9.73
2019-03-02T06:35:32.813Z,10.67
2019-03-02T06:38:05.159Z,9.77
2019-03-02T06:40:37.606Z,11.20
2019-03-02T06:43:09.592Z,11.57
2019-03-02T06:45:43.565Z,10.13
2019-03-02T06:48:14.265Z,9.17
2019-03-02T06:50:46.611Z,10.83
2019-03-02T06:53:20.126Z,9.50
2019-03-02T06:55:56.900Z,10.20
2019-03-02T06:58:29.469Z,12.60
2019-03-02T07:01:01.235Z,13.77
2019-03-02T07:03:35.276Z,13.20
2019-03-02T07:06:08.526Z,13.97
2019-03-02T07:08:41.252Z,12.80
2019-03-02T07:11:14.208Z,14.00
2019-03-02T07:13:47.327Z,12.77
2019-03-02T07:16:20.047Z,14.10
2019-03-02T07:19:00.195Z,13.10
2019-03-02T07:21:32.416Z,15.07
2019-03-02T07:24:05.410Z,14.87
2019-03-02T07:26:37.663Z,17.17
2019-03-02T07:29:13.890Z,16.33
2019-03-02T07:31:46.372Z,17.07
2019-03-02T07:34:21.853Z,18.30
2019-03-02T07:36:53.478Z,16.80
2019-03-02T07:39:28.816Z,18.10
2019-03-02T07:42:01.315Z,16.83
2019-03-02T07:44:35.282Z,17.53
2019-03-02T07:47:06.481Z,20.43
2019-03-02T07:49:37.778Z,17.70
2019-03-02T07:52:09.372Z,19.40
2019-03-02T07:54:42.559Z,20.93
2019-03-02T07:57:17.828Z,20.67
2019-03-02T07:59:50.719Z,19.67
2019-03-02T08:02:25.839Z,17.53
2019-03-02T08:04:56.568Z,16.73
2019-03-02T08:07:29.533Z,16.33
2019-03-02T08:10:03.285Z,15.37
2019-03-02T08:12:37.522Z,13.60
2019-03-02T08:15:12.166Z,13.27
2019-03-02T08:17:48.937Z,12.50
2019-03-02T08:20:20.787Z,8.70
2019-03-02T08:22:53.739Z,6.90
2019-03-02T08:25:26.762Z,8.97
2019-03-02T08:27:58.439Z,8.90
2019-03-02T08:30:33.421Z,8.00
2019-03-02T08:33:05.066Z,6.47
2019-03-02T08:35:36.640Z,7.50
2019-03-02T08:38:11.432Z,7.60
2019-03-02T08:40:44.660Z,7.30
2019-03-02T08:43:17.209Z,6.73
2019-03-02T08:45:50.677Z,8.67
2019-03-02T08:48:25.239Z,7.20
2019-03-02T08:50:59.903Z,7.23
2019-03-02T08:53:34.419Z,7.17
2019-03-02T08:56:11.891Z,6.63
2019-03-02T08:58:43.769Z,6.10
2019-03-02T09:01:18.653Z,6.00
2019-03-02T09:03:50.512Z,5.70
2019-03-02T09:06:25.359Z,5.90
2019-03-02T09:08:58.917Z,6.90
2019-03-02T09:11:31.736Z,5.70
2019-03-02T09:14:04.758Z,4.87
2019-03-02T09:16:38.531Z,5.60
2019-03-02T09:19:10.913Z,6.30
2019-03-02T09:21:44.713Z,5.80
2019-03-02T09:24:19.830Z,7.20
2019-03-02T09:26:52.927Z,6.90
2019-03-02T09:29:25.908Z,8.13
2019-03-02T09:31:58.898Z,8.60
2019-03-02T09:34:32.927Z,7.60
2019-03-02T09:37:08.130Z,8.27
2019-03-02T09:39:41.089Z,8.33
2019-03-02T09:42:14.049Z,11.20
2019-03-02T09:44:50.044Z,10.23
2019-03-02T09:47:22.973Z,11.77
2019-03-02T09:49:57.073Z,13.20
2019-03-02T09:52:31.007Z,11.97
2019-03-02T09:55:03.405Z,13.27
2019-03-02T09:57:34.992Z,15.43
2019-03-02T10:00:23.833Z,14.80
2019-03-02T10:02:53.199Z,25.17
2019-03-02T10:05:26.487Z,20.40
2019-03-02T10:07:58.348Z,20.30
2019-03-02T10:10:33.313Z,19.17
2019-03-02T10:13:08.243Z,20.07
2019-03-02T10:15:41.115Z,19.67
2019-03-02T10:18:13.940Z,21.33
2019-03-02T10:20:47.978Z,21.70
2019-03-02T10:23:21.281Z,18.67
2019-03-02T10:25:53.248Z,19.83
2019-03-02T10:28:26.187Z,17.70
2019-03-02T10:31:02.621Z,18.83
2019-03-02T10:33:33.198Z,18.90
2019-03-02T10:36:06.856Z,17.17
2019-03-02T10:38:39.335Z,18.70
2019-03-02T10:41:12.729Z,14.53
2019-03-02T10:43:45.583Z,10.70
2019-03-02T10:46:17.232Z,11.00
2019-03-02T10:48:50.886Z,8.30
2019-03-02T10:51:24.366Z,9.10
2019-03-02T10:57:10.428Z,8.67
2019-03-02T10:59:42.423Z,7.57
2019-03-02T11:02:16.882Z,7.60
2019-03-02T11:04:57.132Z,7.93
2019-03-02T11:07:44.934Z,9.30
2019-03-02T11:10:28.614Z,10.50
2019-03-02T11:13:19.215Z,7.50
2019-03-02T11:16:15.547Z,8.23
2019-03-02T11:18:54.591Z,9.13
2019-03-02T11:21:39.469Z,6.77
2019-03-02T11:24:40.437Z,7.90
2019-03-02T11:27:35.626Z,7.80
2019-03-02T11:30:20.103Z,6.70
2019-03-02T11:33:12.409Z,7.70
2019-03-02T11:36:02.718Z,8.10
2019-03-02T11:38:52.298Z,8.60
2019-03-02T11:41:32.448Z,8.83
2019-03-02T11:44:24.405Z,9.70
2019-03-02T11:47:16.749Z,9.07
2019-03-02T11:50:10.768Z,9.27
2019-03-02T11:53:18.659Z,9.63
2019-03-02T11:56:02.955Z,8.57
2019-03-02T11:59:09.386Z,9.07
2019-03-02T12:02:15.379Z,9.23
2019-03-02T12:05:03.664Z,9.80
2019-03-02T12:07:55.463Z,9.27
2019-03-02T12:10:36.819Z,10.10
2019-03-02T12:13:20.202Z,10.60
2019-03-02T12:16:02.152Z,10.03
2019-03-02T12:18:59.028Z,9.90
2019-03-02T12:21:57.751Z,9.40
2019-03-02T12:24:50.868Z,8.90
2019-03-02T12:27:45.854Z,10.10
2019-03-02T12:30:26.171Z,11.10
2019-03-02T12:33:43.607Z,12.23
2019-03-02T12:36:36.782Z,10.87
2019-03-02T12:39:19.984Z,10.60
2019-03-02T12:42:15.603Z,11.10
2019-03-02T12:45:12.627Z,9.70
2019-03-02T12:48:10.766Z,10.87
2019-03-02T12:50:58.617Z,9.07
2019-03-02T12:53:48.972Z,10.33
2019-03-02T12:56:42.037Z,9.03
2019-03-02T12:59:46.988Z,9.53
2019-03-02T13:02:33.415Z,9.53
2019-03-02T13:05:31.167Z,10.30
2019-03-02T13:08:17.751Z,8.97
2019-03-02T13:11:13.136Z,9.73
2019-03-02T13:14:10.718Z,8.73
2019-03-02T13:16:51.489Z,8.83
2019-03-02T13:19:41.833Z,8.03
2019-03-02T13:22:26.193Z,8.83
2019-03-02T13:25:13.925Z,8.50
2019-03-02T13:28:01.025Z,9.93
2019-03-02T13:30:52.615Z,8.83
2019-03-02T13:33:48.907Z,7.30
2019-03-02T13:36:30.317Z,7.40
2019-03-02T13:39:17.827Z,10.20
2019-03-02T13:42:01.134Z,10.43
2019-03-02T13:47:51.496Z,8.67
2019-03-02T13:50:58.852Z,10.60
2019-03-02T13:53:47.794Z,8.27
2019-03-02T13:56:38.131Z,9.37
2019-03-02T13:59:18.935Z,10.77
2019-03-02T14:02:22.148Z,8.60
2019-03-02T14:05:18.083Z,7.50
2019-03-02T14:08:17.870Z,8.93
2019-03-02T14:11:11.227Z,8.60
2019-03-02T14:14:03.740Z,8.10
2019-03-02T14:17:12.866Z,8.83
2019-03-02T14:20:07.444Z,9.53
2019-03-02T14:22:48.815Z,7.13
2019-03-02T14:25:48.129Z,8.80
2019-03-02T14:28:42.354Z,8.57
2019-03-02T14:31:37.888Z,9.43
2019-03-02T14:34:25.493Z,8.20
2019-03-02T14:37:14.060Z,8.10
2019-03-02T14:39:54.471Z,7.90
2019-03-02T14:42:33.115Z,7.53
2019-03-02T14:45:25.032Z,8.10
2019-03-02T14:48:26.901Z,8.20
2019-03-02T14:51:20.770Z,8.10
2019-03-02T14:54:11.458Z,8.27
2019-03-02T14:56:56.235Z,7.50
2019-03-02T14:59:58.759Z,8.70
2019-03-02T15:03:10.932Z,7.70
2019-03-02T15:06:09.322Z,7.77
2019-03-02T15:09:08.803Z,8.30
2019-03-02T15:11:56.133Z,8.30
2019-03-02T15:14:44.406Z,8.53
2019-03-02T15:17:29.620Z,8.90
2019-03-02T15:20:24.232Z,9.67
2019-03-02T15:23:08.774Z,7.57
2019-03-02T15:26:06.325Z,10.43
2019-03-02T15:28:50.003Z,8.27
2019-03-02T15:31:52.705Z,8.67
2019-03-02T15:34:49.960Z,11.50
2019-03-02T15:37:33.606Z,9.37
2019-03-02T15:40:32.315Z,10.17
2019-03-02T15:43:25.060Z,9.93
2019-03-02T15:46:20.359Z,9.17
2019-03-02T15:49:03.626Z,9.50
2019-03-02T15:51:42.365Z,12.63
2019-03-02T15:54:29.033Z,14.47
2019-03-02T15:57:05.912Z,9.77
2019-03-02T15:59:57.660Z,9.63
2019-03-02T16:02:59.254Z,9.60
2019-03-02T16:05:57.606Z,8.80
2019-03-02T16:09:00.443Z,9.63
2019-03-02T16:11:53.704Z,10.20
2019-03-02T16:15:00.719Z,11.47
2019-03-02T16:18:00.686Z,11.40
2019-03-02T16:20:48.349Z,11.93
2019-03-02T16:23:50.859Z,11.60
2019-03-02T16:26:45.429Z,10.60
2019-03-02T16:29:29.787Z,10.90
2019-03-02T16:32:27.093Z,10.63
2019-03-02T16:35:25.770Z,9.53
2019-03-02T16:38:27.041Z,10.63
2019-03-02T16:41:18.803Z,10.87
2019-03-02T16:44:18.346Z,10.47
2019-03-02T16:47:25.045Z,10.87
2019-03-02T16:50:16.848Z,10.50
2019-03-02T16:53:22.427Z,10.90
2019-03-02T16:56:21.247Z,11.50
2019-03-02T16:59:19.176Z,10.20
2019-03-02T17:02:13.181Z,10.10
2019-03-02T17:05:16.929Z,10.67
2019-03-02T17:08:10.113Z,9.50
2019-03-02T17:11:07.080Z,13.50
2019-03-02T17:13:45.496Z,11.97
2019-03-02T17:16:32.140Z,13.57
2019-03-02T17:19:20.167Z,12.87
2019-03-02T17:22:02.047Z,12.30
2019-03-02T17:24:51.032Z,11.57
2019-03-02T17:27:37.096Z,12.23
2019-03-02T17:30:24.975Z,12.30
2019-03-02T17:33:15.065Z,12.20
2019-03-02T17:35:53.994Z,12.57
2019-03-02T17:38:51.328Z,12.80
2019-03-02T17:41:51.361Z,12.00
2019-03-02T17:44:38.651Z,12.60
2019-03-02T17:47:23.058Z,13.73
2019-03-02T17:50:00.034Z,13.73
2019-03-02T17:52:54.897Z,12.40
2019-03-02T17:56:01.011Z,14.07
2019-03-02T17:58:50.102Z,13.70
2019-03-02T18:01:45.159Z,14.83
2019-03-02T18:04:39.302Z,13.37
2019-03-02T18:07:38.363Z,14.13
2019-03-02T18:10:47.829Z,13.37
2019-03-02T18:13:47.868Z,14.27
2019-03-02T18:16:41.315Z,13.30
2019-03-02T18:19:14.372Z,14.23
2019-03-02T18:21:48.645Z,14.93
2019-03-02T18:24:21.556Z,14.70
2019-03-02T18:26:57.019Z,14.13
2019-03-02T18:29:30.726Z,14.70
2019-03-02T18:32:02.396Z,14.30
2019-03-02T18:34:33.616Z,14.13
2019-03-02T18:37:06.975Z,14.80
2019-03-02T18:39:38.625Z,14.07
2019-03-02T18:42:11.661Z,16.37
2019-03-02T18:44:45.357Z,14.97
2019-03-02T18:47:17.467Z,15.60
2019-03-02T18:50:08.501Z,15.50
2019-03-02T18:53:13.270Z,13.97
2019-03-02T18:55:45.752Z,14.30
2019-03-02T18:58:18.704Z,16.47
2019-03-02T19:00:54.109Z,16.37
2019-03-02T19:03:27.772Z,17.03
2019-03-02T19:05:58.987Z,19.03
2019-03-02T19:08:32.486Z,22.60
2019-03-02T19:11:04.435Z,26.70
2019-03-02T19:13:36.557Z,21.47
2019-03-02T19:16:10.731Z,17.97
2019-03-02T19:18:44.164Z,17.80
2019-03-02T19:21:16.561Z,22.90
2019-03-02T19:23:48.567Z,21.80
2019-03-02T19:26:21.399Z,17.77
2019-03-02T19:28:55.618Z,17.50
2019-03-02T19:31:28.779Z,17.10
2019-03-02T19:34:00.582Z,16.77
2019-03-02T19:36:32.763Z,15.60
2019-03-02T19:39:19.773Z,17.40
2019-03-02T19:41:55.599Z,16.93
2019-03-02T19:44:27.881Z,16.50
2019-03-02T19:46:59.673Z,16.70
2019-03-02T19:49:34.468Z,20.27
2019-03-02T19:52:09.087Z,19.30
2019-03-02T19:54:41.823Z,17.50
2019-03-02T19:57:14.849Z,17.97
2019-03-02T19:59:47.962Z,18.60
2019-03-02T20:02:20.772Z,17.87
2019-03-02T20:04:53.803Z,19.97
2019-03-02T20:07:27.872Z,17.17
2019-03-02T20:09:59.960Z,16.87
2019-03-02T20:12:31.896Z,17.10
2019-03-02T20:15:06.825Z,18.67
2019-03-02T20:17:40.483Z,17.70
2019-03-02T20:20:13.750Z,18.37
2019-03-02T20:22:49.271Z,19.90
2019-03-02T20:25:22.025Z,19.23
2019-03-02T20:27:53.992Z,19.30
2019-03-02T20:30:27.478Z,19.87
2019-03-02T20:33:01.703Z,17.60
2019-03-02T20:35:35.765Z,19.20
2019-03-02T20:38:11.126Z,18.30
2019-03-02T20:40:46.684Z,19.30
2019-03-02T20:43:19.452Z,18.13
2019-03-02T20:45:51.028Z,17.87
2019-03-02T20:48:24.608Z,20.10
2019-03-02T20:50:58.090Z,17.70
2019-03-02T20:53:29.359Z,16.73
2019-03-02T20:56:03.791Z,17.13
2019-03-02T20:58:37.823Z,20.03
2019-03-02T21:01:15.231Z,17.23
2019-03-02T21:03:48.659Z,15.20
2019-03-02T21:06:22.844Z,18.37
2019-03-02T21:08:54.107Z,18.20
2019-03-02T21:11:26.158Z,20.30
2019-03-02T21:14:00.195Z,18.47
2019-03-02T21:16:36.105Z,17.90
2019-03-02T21:19:07.426Z,19.23
2019-03-02T21:21:39.251Z,15.30
2019-03-02T21:24:12.356Z,15.53
2019-03-02T21:26:46.879Z,16.10
2019-03-02T21:29:20.746Z,17.73
2019-03-02T21:31:54.284Z,17.40
2019-03-02T21:34:27.171Z,16.67
2019-03-02T21:37:00.798Z,15.70
2019-03-02T21:39:32.267Z,14.83
2019-03-02T21:42:05.392Z,15.13
2019-03-02T21:44:37.296Z,15.10
2019-03-02T21:47:10.417Z,15.13
2019-03-02T21:49:42.157Z,14.83
2019-03-02T21:52:15.446Z,14.43
2019-03-02T21:54:48.448Z,16.63
2019-03-02T21:57:20.181Z,15.40
2019-03-02T21:59:54.789Z,16.47
2019-03-02T22:02:27.307Z,14.63
2019-03-02T22:04:58.481Z,15.93
2019-03-02T22:07:30.405Z,15.83
2019-03-02T22:10:01.602Z,15.90
2019-03-02T22:12:33.765Z,16.30
2019-03-02T22:15:10.618Z,16.83
2019-03-02T22:17:46.099Z,14.60
2019-03-02T22:20:19.451Z,15.80
2019-03-02T22:22:53.162Z,15.77
2019-03-02T22:25:27.472Z,16.83
2019-03-02T22:28:00.545Z,15.40
2019-03-02T22:30:36.050Z,15.63
2019-03-02T22:33:08.867Z,15.53
2019-03-02T22:35:43.322Z,16.40
2019-03-02T22:38:15.570Z,14.80
2019-03-02T22:40:49.384Z,15.70
2019-03-02T22:43:23.499Z,17.40
2019-03-02T22:45:57.472Z,15.43
2019-03-02T22:48:29.911Z,15.90
2019-03-02T22:51:05.400Z,19.60
2019-03-02T22:53:37.622Z,17.87
2019-03-02T22:56:09.727Z,18.70
2019-03-02T22:58:41.575Z,18.33
2019-03-02T23:02:06.686Z,16.40
2019-03-02T23:04:47.235Z,16.37
2019-03-02T23:07:18.752Z,17.40
2019-03-02T23:09:51.564Z,15.97
2019-03-02T23:12:24.682Z,16.43
2019-03-02T23:14:57.569Z,17.90
2019-03-02T23:17:31.827Z,17.60
2019-03-02T23:20:03.674Z,15.20
2019-03-02T23:22:35.506Z,17.53
2019-03-02T23:25:07.696Z,16.37
2019-03-02T23:27:38.965Z,17.10
2019-03-02T23:30:14.976Z,16.87
2019-03-02T23:32:49.956Z,17.20
2019-03-02T23:35:24.952Z,18.30
2019-03-02T23:37:58.382Z,17.07
2019-03-02T23:40:30.702Z,16.90
2019-03-02T23:43:03.902Z,18.53
2019-03-02T23:45:35.876Z,16.67
2019-03-02T23:48:09.890Z,18.17
2019-03-02T23:50:42.866Z,18.20
2019-03-02T23:53:15.872Z,16.53
2019-03-02T23:55:49.771Z,17.20
2019-03-02T23:58:20.946Z,17.77
